Accueil
METAR-TAF:

METAR-TAF

Aéroports :

Landivisiau, France

Base aérienne

latitude: 48-31N, longitude: 004-09W, altitude: 106 m

Observation

Le bulletin a été fait il y a 26 minutes, à 21:00 UTC
Vent 3 kt de nord
Température 3°C
Humidité 87%
Pression 1021 hPa
Visibilité 10 km ou plus
pas de nuages en-dessous de 1500 mètres et pas de cumulonimbus.

METAR: LFRJ 262100Z AUTO 36003KT CAVOK 03/01 Q1021

Heure: 23:26 (21:26 UTC)

Prévision

Le bulletin a été fait il y a 7 heures et 26 minutes, à 14:00 UTC
Prévision valable du 26 à 15 UTC au 26 à 24 UTC
Vent 12 kt de nord
Visibilité 10 km ou plus
Nuages fragmentés à une hauteur de 3500 ft
Temporairement
du 26 à 15 UTC au 26 à 18 UTC
Vent 15 kt de direction variable avec des rafales jusqu'à 25 kt
Nuages fragmentés à une hauteur de 2000 ft, Cumulus congestus.
averses de pluie, grésil ou neige roulée

TAF: LFRJ 261400Z 2615/2624 01012KT 9999 BKN035 TEMPO 2615/2618 VRB15G25KT SHRAGS BKN020TCU

Observations et prévisions météorologiques de plus de 4000 aéroports (messages METAR et TAF).

Les stations disponibles sont représentées par des disques jaunes et rouges sur la carte.

Passer la souris dessus pour voir le nom de la station.

Cliquer dessus pour voir les observations et prévisions météorologiques.

Pour changer de carte: cliquez sur les boutons verts avec une croix noire pour zoomer, sur le bouton vert avec un tiret pour effectuer un zoom arrière, ou sur les flèches vertes pour les cartes adjacentes.


METAR-TAF: